createdAt,value
2023-02-21T00:01:37.340Z,80.36
2023-02-21T00:04:03.775Z,79.30
2023-02-21T00:06:30.288Z,81.97
2023-02-21T00:08:56.622Z,82.64
2023-02-21T00:11:23.980Z,80.56
2023-02-21T00:13:50.479Z,81.98
2023-02-21T00:16:17.338Z,81.06
2023-02-21T00:18:46.742Z,81.11
2023-02-21T00:21:13.396Z,79.60
2023-02-21T00:23:40.089Z,81.97
2023-02-21T00:26:06.404Z,80.33
2023-02-21T00:28:32.985Z,83.79
2023-02-21T00:30:59.442Z,82.84
2023-02-21T00:33:25.943Z,84.70
2023-02-21T00:35:52.472Z,81.42
2023-02-21T00:38:18.831Z,82.72
2023-02-21T00:40:45.215Z,81.74
2023-02-21T00:43:11.561Z,82.37
2023-02-21T00:45:38.090Z,83.58
2023-02-21T00:48:04.545Z,83.39
2023-02-21T00:50:31.020Z,83.79
2023-02-21T00:52:57.442Z,84.84
2023-02-21T00:55:23.787Z,82.70
2023-02-21T00:57:50.123Z,83.41
2023-02-21T01:00:18.365Z,85.12
2023-02-21T01:02:44.715Z,83.79
2023-02-21T01:05:11.069Z,83.68
2023-02-21T01:07:37.446Z,83.16
2023-02-21T01:10:05.694Z,88.33
2023-02-21T01:12:32.160Z,87.13
2023-02-21T01:14:58.539Z,84.74
2023-02-21T01:17:25.619Z,84.90
2023-02-21T01:19:51.904Z,86.89
2023-02-21T01:22:18.228Z,85.11
2023-02-21T01:24:44.585Z,85.28
2023-02-21T01:27:10.975Z,86.47
2023-02-21T01:29:37.502Z,87.49
2023-02-21T01:32:04.062Z,86.62
2023-02-21T01:34:30.867Z,89.00
2023-02-21T01:36:57.252Z,90.23
2023-02-21T01:39:23.678Z,87.46
2023-02-21T01:41:50.006Z,87.08
2023-02-21T01:44:28.513Z,87.12
2023-02-21T01:46:55.007Z,89.28
2023-02-21T01:49:21.402Z,88.16
2023-02-21T01:51:48.382Z,89.42
2023-02-21T01:54:14.940Z,91.03
2023-02-21T01:56:41.303Z,90.49
2023-02-21T01:59:09.248Z,88.99
2023-02-21T02:01:50.899Z,88.74
2023-02-21T02:04:17.453Z,88.97
2023-02-21T02:06:43.786Z,89.24
2023-02-21T02:09:20.525Z,88.43
2023-02-21T02:11:50.043Z,90.44
2023-02-21T02:14:23.998Z,91.13
2023-02-21T02:16:55.919Z,90.34
2023-02-21T02:19:37.809Z,88.98
2023-02-21T02:22:16.434Z,89.71
2023-02-21T02:24:57.597Z,90.38
2023-02-21T02:27:40.051Z,90.56
2023-02-21T02:30:19.292Z,90.81
2023-02-21T02:32:56.711Z,90.66
2023-02-21T02:35:46.273Z,90.04
2023-02-21T02:38:31.305Z,92.85
2023-02-21T02:40:57.908Z,91.92
2023-02-21T02:43:29.235Z,90.47
2023-02-21T02:46:01.807Z,91.28
2023-02-21T02:48:38.451Z,92.27
2023-02-21T02:51:07.962Z,92.41
2023-02-21T02:53:34.662Z,91.41
2023-02-21T02:56:03.339Z,90.98
2023-02-21T02:58:40.131Z,91.14
2023-02-21T03:01:16.443Z,92.73
2023-02-21T03:04:09.493Z,91.91
2023-02-21T03:06:43.638Z,91.66
2023-02-21T03:09:16.407Z,91.36
2023-02-21T03:11:48.013Z,92.18
2023-02-21T03:14:16.993Z,92.87
2023-02-21T03:16:47.090Z,94.39
2023-02-21T03:19:16.758Z,93.05
2023-02-21T03:21:46.293Z,92.35
2023-02-21T03:24:14.015Z,93.08
2023-02-21T03:26:42.338Z,93.31
2023-02-21T03:29:29.481Z,92.01
2023-02-21T03:32:00.608Z,92.33
2023-02-21T03:34:26.959Z,93.90
2023-02-21T03:36:53.626Z,93.98
2023-02-21T03:39:19.970Z,94.54
2023-02-21T03:41:46.689Z,94.14
2023-02-21T03:44:13.107Z,92.66
2023-02-21T03:46:40.983Z,93.34
2023-02-21T03:49:07.726Z,93.15
2023-02-21T03:51:34.643Z,93.01
2023-02-21T03:54:01.013Z,92.47
2023-02-21T03:56:41.855Z,92.36
2023-02-21T03:59:35.401Z,92.34
2023-02-21T04:02:02.175Z,93.43
2023-02-21T04:04:30.759Z,92.92
2023-02-21T04:07:06.098Z,92.77
2023-02-21T04:09:32.861Z,93.00
2023-02-21T04:11:59.666Z,93.98
2023-02-21T04:14:26.760Z,93.97
2023-02-21T04:16:53.993Z,92.90
2023-02-21T04:19:21.680Z,92.56
2023-02-21T04:21:48.137Z,92.84
2023-02-21T04:24:14.815Z,92.93
2023-02-21T04:26:41.213Z,92.67
2023-02-21T04:29:07.772Z,92.57
2023-02-21T04:31:34.417Z,92.91
2023-02-21T04:34:11.670Z,93.18
2023-02-21T04:36:42.015Z,94.22
2023-02-21T04:39:09.109Z,93.79
2023-02-21T04:41:35.794Z,93.20
2023-02-21T04:44:02.408Z,93.40
2023-02-21T04:46:31.823Z,93.08
2023-02-21T04:48:58.225Z,93.17
2023-02-21T04:51:25.204Z,94.10
2023-02-21T04:53:52.261Z,94.67
2023-02-21T04:56:19.844Z,94.23
2023-02-21T04:58:46.374Z,93.96
2023-02-21T05:01:14.319Z,93.65
2023-02-21T05:03:41.016Z,94.19
2023-02-21T05:06:07.573Z,93.91
2023-02-21T05:08:34.819Z,94.34
2023-02-21T05:11:01.356Z,94.49
2023-02-21T05:13:27.736Z,93.98
2023-02-21T05:15:54.122Z,93.76
2023-02-21T05:18:20.496Z,93.92
2023-02-21T05:20:47.338Z,94.44
2023-02-21T05:23:14.295Z,94.57
2023-02-21T05:25:40.710Z,94.06
2023-02-21T05:28:07.164Z,94.24
2023-02-21T05:30:33.658Z,94.61
2023-02-21T05:33:00.100Z,94.48
2023-02-21T05:35:26.507Z,94.29
2023-02-21T05:37:52.848Z,94.55
2023-02-21T05:40:19.239Z,94.99
2023-02-21T05:42:45.623Z,94.22
2023-02-21T05:45:11.945Z,93.86
2023-02-21T05:47:38.310Z,93.56
2023-02-21T05:50:06.427Z,93.55
2023-02-21T05:52:32.838Z,93.68
2023-02-21T05:54:59.216Z,94.35
2023-02-21T05:57:25.650Z,94.56
2023-02-21T05:59:52.006Z,94.64
2023-02-21T06:02:38.452Z,93.93
2023-02-21T06:05:05.116Z,94.42
2023-02-21T06:07:31.539Z,95.12
2023-02-21T06:09:57.849Z,95.26
2023-02-21T06:12:24.162Z,94.52
2023-02-21T06:14:50.463Z,94.83
2023-02-21T06:17:16.805Z,94.23
2023-02-21T06:19:43.113Z,94.35
2023-02-21T06:22:09.452Z,94.42
2023-02-21T06:24:35.878Z,94.03
2023-02-21T06:27:02.297Z,93.71
2023-02-21T06:29:28.649Z,93.81
2023-02-21T06:31:58.555Z,94.43
2023-02-21T06:34:25.261Z,94.92
2023-02-21T06:36:52.230Z,94.88
2023-02-21T06:39:18.782Z,95.12
2023-02-21T06:41:44.928Z,94.56
2023-02-21T06:44:11.595Z,94.89
2023-02-21T06:46:38.133Z,94.06
2023-02-21T06:49:04.729Z,94.35
2023-02-21T06:51:38.147Z,93.96
2023-02-21T06:54:04.757Z,94.90
2023-02-21T06:56:31.142Z,94.86
2023-02-21T06:58:57.398Z,94.65
2023-02-21T07:01:27.763Z,94.37
2023-02-21T07:03:55.060Z,94.21
2023-02-21T07:06:21.426Z,94.52
2023-02-21T07:08:48.202Z,94.25
2023-02-21T07:11:14.931Z,94.28
2023-02-21T07:13:41.516Z,94.33
2023-02-21T07:16:07.846Z,94.16
2023-02-21T07:18:34.274Z,94.13
2023-02-21T07:21:00.641Z,94.14
2023-02-21T07:23:27.208Z,94.47
2023-02-21T07:25:53.916Z,94.29
2023-02-21T07:28:20.309Z,94.17
2023-02-21T07:30:46.822Z,94.39
2023-02-21T07:33:13.719Z,94.38
2023-02-21T07:35:39.999Z,94.20
2023-02-21T07:38:06.350Z,94.56
2023-02-21T07:40:32.769Z,94.19
2023-02-21T07:42:59.134Z,93.50
2023-02-21T07:45:25.503Z,93.34
2023-02-21T07:47:52.065Z,94.28
2023-02-21T07:50:18.464Z,94.38
2023-02-21T07:52:44.852Z,93.93
2023-02-21T07:55:11.755Z,94.69
2023-02-21T07:57:38.312Z,95.09
2023-02-21T08:00:05.299Z,94.72
2023-02-21T08:02:39.681Z,94.30
2023-02-21T08:05:08.484Z,94.02
2023-02-21T08:07:34.837Z,94.03
2023-02-21T08:10:01.375Z,93.73
2023-02-21T08:12:28.274Z,93.92
2023-02-21T08:14:54.934Z,94.20
2023-02-21T08:17:21.359Z,94.12
2023-02-21T08:19:47.801Z,94.23
2023-02-21T08:22:14.249Z,94.28
2023-02-21T08:24:40.768Z,93.80
2023-02-21T08:27:07.324Z,93.03
2023-02-21T08:29:33.729Z,93.05
2023-02-21T08:32:00.191Z,93.77
2023-02-21T08:34:26.682Z,93.20
2023-02-21T08:36:53.142Z,93.23
2023-02-21T08:39:19.516Z,93.54
2023-02-21T08:41:46.320Z,93.77
2023-02-21T08:44:13.959Z,93.77
2023-02-21T08:46:40.332Z,94.18
2023-02-21T08:49:06.836Z,94.75
2023-02-21T08:51:33.790Z,94.77
2023-02-21T08:54:00.404Z,94.06
2023-02-21T08:56:27.240Z,93.41
2023-02-21T08:58:54.179Z,93.31
2023-02-21T09:01:21.444Z,93.01
2023-02-21T09:03:47.910Z,93.25
2023-02-21T09:06:14.704Z,92.90
2023-02-21T09:08:41.251Z,93.11
2023-02-21T09:11:07.709Z,92.89
2023-02-21T09:13:34.484Z,93.27
2023-02-21T09:16:01.889Z,92.91
2023-02-21T09:18:29.390Z,92.83
2023-02-21T09:20:56.156Z,92.87
2023-02-21T09:23:26.266Z,93.60
2023-02-21T09:25:52.973Z,93.79
2023-02-21T09:28:19.440Z,93.11
2023-02-21T09:30:46.382Z,93.72
2023-02-21T09:33:13.446Z,94.38
2023-02-21T09:35:39.791Z,94.15
2023-02-21T09:38:06.852Z,93.91
2023-02-21T09:40:36.557Z,94.05
2023-02-21T09:43:04.397Z,94.47
2023-02-21T09:45:32.586Z,94.43
2023-02-21T09:48:02.261Z,93.51
2023-02-21T09:50:31.788Z,93.75
2023-02-21T09:52:58.628Z,94.29
2023-02-21T09:55:30.953Z,94.26
2023-02-21T09:57:57.389Z,94.90
2023-02-21T10:03:04.118Z,95.31
2023-02-21T10:05:41.583Z,93.56
2023-02-21T10:08:10.965Z,92.97
2023-02-21T10:10:43.004Z,94.72
2023-02-21T10:13:27.789Z,93.75
2023-02-21T10:16:03.615Z,92.82
2023-02-21T10:18:42.548Z,92.38
2023-02-21T10:21:15.840Z,91.31
2023-02-21T10:23:46.245Z,90.28
2023-02-21T10:26:19.115Z,85.86
2023-02-21T10:28:45.738Z,85.31
2023-02-21T10:31:17.731Z,87.09
2023-02-21T10:33:44.339Z,86.72
2023-02-21T10:36:11.736Z,86.26
2023-02-21T10:38:38.905Z,87.63
2023-02-21T10:41:06.397Z,88.02
2023-02-21T10:43:50.366Z,88.43
2023-02-21T10:48:59.071Z,89.07
2023-02-21T10:51:30.901Z,89.82
2023-02-21T10:54:20.783Z,91.33
2023-02-21T10:56:48.347Z,91.58
2023-02-21T10:59:20.930Z,90.23
2023-02-21T11:01:47.585Z,89.61
2023-02-21T11:04:20.088Z,89.46
2023-02-21T11:07:10.206Z,91.21
2023-02-21T11:09:47.083Z,90.55
2023-02-21T11:12:16.548Z,90.33
2023-02-21T11:14:44.684Z,92.10
2023-02-21T11:17:13.180Z,91.24
2023-02-21T11:19:48.663Z,91.06
2023-02-21T11:22:16.478Z,91.48
2023-02-21T11:24:45.808Z,91.28
2023-02-21T11:27:12.727Z,91.83
2023-02-21T11:29:42.213Z,92.38
2023-02-21T11:32:11.232Z,90.96
2023-02-21T11:34:37.640Z,91.79
2023-02-21T11:37:04.266Z,91.77
2023-02-21T11:39:33.932Z,91.47
2023-02-21T11:42:01.713Z,91.37
2023-02-21T11:44:27.593Z,91.42
2023-02-21T11:47:11.143Z,91.24
2023-02-21T11:49:37.541Z,91.43
2023-02-21T11:52:36.448Z,92.44
2023-02-21T11:55:03.582Z,92.11
2023-02-21T11:57:29.904Z,91.99
2023-02-21T12:00:16.571Z,91.58
2023-02-21T12:02:59.192Z,91.24
2023-02-21T12:05:31.929Z,90.42
2023-02-21T12:07:58.345Z,89.87
2023-02-21T12:10:37.649Z,90.39
2023-02-21T12:13:22.754Z,91.01
2023-02-21T12:15:55.371Z,90.60
2023-02-21T12:18:31.848Z,91.00
2023-02-21T12:21:20.852Z,92.75
2023-02-21T12:23:58.171Z,93.04
2023-02-21T12:26:45.853Z,91.84
2023-02-21T12:29:18.352Z,85.78
2023-02-21T12:31:59.056Z,84.41
2023-02-21T12:34:25.494Z,80.92
2023-02-21T12:36:56.471Z,79.76
2023-02-21T12:39:58.108Z,75.78
2023-02-21T12:42:50.515Z,77.00
2023-02-21T12:45:22.858Z,77.98
2023-02-21T12:48:21.595Z,78.28
2023-02-21T12:50:57.437Z,77.60
2023-02-21T12:53:49.297Z,78.12
2023-02-21T12:56:20.755Z,81.87
2023-02-21T12:58:47.502Z,82.95
2023-02-21T13:01:24.737Z,84.66
2023-02-21T13:03:51.382Z,85.30
2023-02-21T13:06:17.831Z,85.55
2023-02-21T13:08:59.753Z,83.03
2023-02-21T13:11:26.102Z,78.31
2023-02-21T13:13:52.362Z,82.21
2023-02-21T13:16:19.313Z,80.00
2023-02-21T13:18:49.837Z,78.39
2023-02-21T13:21:28.526Z,74.37
2023-02-21T13:24:13.158Z,76.73
2023-02-21T13:26:56.964Z,77.49
2023-02-21T13:29:28.303Z,77.23
2023-02-21T13:32:00.950Z,76.56
2023-02-21T13:34:29.517Z,81.63
2023-02-21T13:37:00.578Z,77.73
2023-02-21T13:39:28.441Z,81.03
2023-02-21T13:42:01.458Z,84.46
2023-02-21T13:44:36.973Z,79.03
2023-02-21T13:47:03.416Z,84.51
2023-02-21T13:49:43.208Z,82.80
2023-02-21T13:52:21.565Z,79.99
2023-02-21T13:55:08.126Z,80.56
2023-02-21T13:57:36.336Z,81.95
2023-02-21T14:00:28.964Z,83.67
2023-02-21T14:03:14.014Z,82.45
2023-02-21T14:05:59.591Z,82.54
2023-02-21T14:08:34.981Z,83.68
2023-02-21T14:11:04.601Z,80.39
2023-02-21T14:13:40.788Z,82.24
2023-02-21T14:16:07.484Z,81.51
2023-02-21T14:18:36.803Z,80.87
2023-02-21T14:21:05.877Z,80.72
2023-02-21T14:23:52.034Z,81.41
2023-02-21T14:26:41.036Z,82.70
2023-02-21T14:29:07.940Z,82.20
2023-02-21T14:31:51.474Z,81.56
2023-02-21T14:35:00.445Z,82.80
2023-02-21T14:37:29.803Z,83.66
2023-02-21T14:39:56.799Z,86.27
2023-02-21T14:42:41.719Z,85.52
2023-02-21T14:45:10.901Z,83.65
2023-02-21T14:47:49.602Z,84.35
2023-02-21T14:50:31.346Z,83.73
2023-02-21T14:53:01.004Z,85.02
2023-02-21T14:58:43.604Z,83.89
2023-02-21T15:01:16.240Z,83.71
2023-02-21T15:03:51.504Z,82.94
2023-02-21T15:06:19.444Z,83.53
2023-02-21T15:09:13.279Z,82.54
2023-02-21T15:11:40.187Z,82.59
2023-02-21T15:14:14.403Z,83.49
2023-02-21T15:16:43.560Z,84.13
2023-02-21T15:19:19.676Z,84.10
2023-02-21T15:21:46.125Z,86.14
2023-02-21T15:24:14.317Z,84.01
2023-02-21T15:30:15.574Z,84.29
2023-02-21T15:32:43.638Z,83.55
2023-02-21T15:35:17.490Z,84.99
2023-02-21T15:37:44.648Z,85.97
2023-02-21T15:40:22.413Z,85.01
2023-02-21T15:43:22.136Z,84.69
2023-02-21T15:45:51.269Z,82.63
2023-02-21T15:48:17.816Z,86.26
2023-02-21T15:50:45.379Z,87.22
2023-02-21T15:53:16.316Z,85.79
2023-02-21T15:55:43.504Z,84.42
2023-02-21T15:58:15.971Z,85.05
2023-02-21T16:00:49.357Z,86.72
2023-02-21T16:03:34.621Z,85.35
2023-02-21T16:06:19.424Z,83.30
2023-02-21T16:09:06.555Z,83.68
2023-02-21T16:11:42.036Z,82.15
2023-02-21T16:14:26.963Z,83.81
2023-02-21T16:17:06.148Z,84.54
2023-02-21T16:19:33.697Z,84.24
2023-02-21T16:22:20.165Z,84.39
2023-02-21T16:24:46.996Z,82.95
2023-02-21T16:27:15.704Z,85.09
2023-02-21T16:29:42.282Z,83.73
2023-02-21T16:32:18.981Z,85.24
2023-02-21T16:34:45.494Z,84.59
2023-02-21T16:37:13.291Z,83.76
2023-02-21T16:39:48.284Z,84.36
2023-02-21T16:42:14.643Z,83.84
2023-02-21T16:44:43.986Z,84.31
2023-02-21T16:47:13.891Z,83.50
2023-02-21T16:49:40.578Z,83.73
2023-02-21T16:52:09.656Z,84.46
2023-02-21T16:54:35.916Z,84.70
2023-02-21T16:57:02.282Z,85.81
2023-02-21T16:59:28.606Z,85.89
2023-02-21T17:01:55.073Z,86.18
2023-02-21T17:04:22.413Z,85.00
2023-02-21T17:06:56.441Z,85.06
2023-02-21T17:09:24.091Z,85.28
2023-02-21T17:11:50.475Z,86.75
2023-02-21T17:14:16.906Z,87.35
2023-02-21T17:16:43.228Z,87.25
2023-02-21T17:19:10.333Z,88.05
2023-02-21T17:21:36.741Z,86.71
2023-02-21T17:24:03.346Z,84.42
2023-02-21T17:26:29.641Z,84.37
2023-02-21T17:28:56.148Z,83.69
2023-02-21T17:31:22.772Z,83.88
2023-02-21T17:33:49.167Z,85.53
2023-02-21T17:36:16.398Z,86.01
2023-02-21T17:38:42.844Z,84.84
2023-02-21T17:41:09.481Z,84.61
2023-02-21T17:43:36.047Z,84.03
2023-02-21T17:46:04.304Z,84.23
2023-02-21T17:48:30.631Z,84.41
2023-02-21T17:50:57.121Z,84.39
2023-02-21T17:53:23.437Z,85.18
2023-02-21T17:55:49.825Z,84.40
2023-02-21T17:58:16.178Z,84.36
2023-02-21T18:00:43.055Z,84.37
2023-02-21T18:03:09.367Z,84.49
2023-02-21T18:05:36.073Z,84.50
2023-02-21T18:08:03.233Z,84.24
2023-02-21T18:10:29.691Z,84.30
2023-02-21T18:12:56.124Z,84.00
2023-02-21T18:15:23.710Z,83.78
2023-02-21T18:17:50.009Z,83.68
2023-02-21T18:20:16.998Z,83.44
2023-02-21T18:22:43.972Z,82.99
2023-02-21T18:25:11.008Z,82.52
2023-02-21T18:27:37.476Z,83.65
2023-02-21T18:30:04.360Z,82.89
2023-02-21T18:32:30.888Z,82.25
2023-02-21T18:34:57.687Z,81.97
2023-02-21T18:37:24.123Z,81.68
2023-02-21T18:39:51.336Z,81.88
2023-02-21T18:42:18.167Z,81.83
2023-02-21T18:44:44.697Z,82.63
2023-02-21T18:47:11.055Z,82.20
2023-02-21T18:49:38.317Z,82.60
2023-02-21T18:52:05.224Z,81.83
2023-02-21T18:54:31.707Z,82.19
2023-02-21T18:56:58.280Z,82.28
2023-02-21T18:59:24.622Z,82.28
2023-02-21T19:01:52.387Z,82.08
2023-02-21T19:04:19.201Z,81.61
2023-02-21T19:06:45.967Z,81.77
2023-02-21T19:09:12.420Z,83.22
2023-02-21T19:11:39.355Z,82.24
2023-02-21T19:14:06.447Z,82.11
2023-02-21T19:16:33.053Z,82.15
2023-02-21T19:18:59.869Z,82.03
2023-02-21T19:21:26.437Z,81.55
2023-02-21T19:23:52.849Z,82.39
2023-02-21T19:26:19.417Z,82.49
2023-02-21T19:28:46.332Z,84.49
2023-02-21T19:31:16.426Z,81.98
2023-02-21T19:33:43.290Z,81.65
2023-02-21T19:36:10.283Z,82.18
2023-02-21T19:38:36.711Z,82.31
2023-02-21T19:41:06.756Z,82.57
2023-02-21T19:43:36.040Z,82.60
2023-02-21T19:46:03.164Z,82.71
2023-02-21T19:48:30.421Z,83.66
2023-02-21T19:50:57.074Z,83.02
2023-02-21T19:53:23.571Z,82.07
2023-02-21T19:55:50.021Z,82.05
2023-02-21T19:58:17.370Z,81.52
2023-02-21T20:00:43.795Z,81.22
2023-02-21T20:03:10.830Z,82.31
2023-02-21T20:05:37.570Z,85.02
2023-02-21T20:08:04.359Z,83.55
2023-02-21T20:10:30.933Z,82.63
2023-02-21T20:12:57.753Z,82.94
2023-02-21T20:15:24.353Z,85.07
2023-02-21T20:17:50.939Z,85.08
2023-02-21T20:20:17.577Z,86.93
2023-02-21T20:22:44.155Z,85.96
2023-02-21T20:25:10.769Z,84.99
2023-02-21T20:27:39.506Z,85.32
2023-02-21T20:30:06.183Z,84.02
2023-02-21T20:32:33.330Z,84.69
2023-02-21T20:35:00.348Z,86.71
2023-02-21T20:37:27.045Z,85.82
2023-02-21T20:39:53.429Z,85.73
2023-02-21T20:42:19.904Z,85.28
2023-02-21T20:44:46.364Z,85.63
2023-02-21T20:47:12.664Z,87.51
2023-02-21T20:49:53.630Z,88.12
2023-02-21T20:52:20.073Z,89.91
2023-02-21T20:54:46.425Z,90.59
2023-02-21T20:57:12.838Z,89.32
2023-02-21T20:59:39.386Z,88.92
2023-02-21T21:02:06.785Z,88.88
2023-02-21T21:04:37.549Z,89.42
2023-02-21T21:07:06.373Z,89.62
2023-02-21T21:09:32.963Z,89.19
2023-02-21T21:11:59.965Z,87.38
2023-02-21T21:14:26.973Z,86.75
2023-02-21T21:16:53.466Z,85.92
2023-02-21T21:19:21.151Z,84.54
2023-02-21T21:21:48.317Z,85.09
2023-02-21T21:24:14.641Z,85.30
2023-02-21T21:26:44.596Z,87.39
2023-02-21T21:29:11.270Z,88.01
2023-02-21T21:31:38.241Z,87.52
2023-02-21T21:34:05.390Z,85.87
2023-02-21T21:36:31.863Z,87.56
2023-02-21T21:38:58.416Z,90.80
2023-02-21T21:41:28.036Z,92.11
2023-02-21T21:43:54.862Z,92.48
2023-02-21T21:46:21.645Z,91.87
2023-02-21T21:48:48.186Z,91.01
2023-02-21T21:51:15.298Z,90.74
2023-02-21T21:53:42.060Z,90.27
2023-02-21T21:56:08.430Z,89.84
2023-02-21T21:58:35.352Z,90.07
2023-02-21T22:01:02.273Z,89.97
2023-02-21T22:03:28.649Z,90.04
2023-02-21T22:05:55.610Z,89.56
2023-02-21T22:08:22.436Z,89.27
2023-02-21T22:10:48.917Z,88.67
2023-02-21T22:13:15.269Z,88.20
2023-02-21T22:15:42.959Z,88.11
2023-02-21T22:18:10.963Z,88.61
2023-02-21T22:20:37.753Z,88.05
2023-02-21T22:23:05.846Z,86.79
2023-02-21T22:25:32.717Z,86.56
2023-02-21T22:28:02.054Z,86.91
2023-02-21T22:30:28.621Z,87.18
2023-02-21T22:32:56.446Z,86.50
2023-02-21T22:35:22.874Z,88.46
2023-02-21T22:37:50.945Z,88.67
2023-02-21T22:40:22.739Z,88.27
2023-02-21T22:42:59.124Z,87.01
2023-02-21T22:45:26.906Z,87.22
2023-02-21T22:47:54.150Z,87.83
2023-02-21T22:50:21.385Z,87.58
2023-02-21T22:52:48.748Z,87.44
2023-02-21T22:55:15.012Z,86.64
2023-02-21T22:57:41.289Z,87.45
2023-02-21T23:00:07.950Z,87.10
2023-02-21T23:02:34.325Z,87.23
2023-02-21T23:05:00.634Z,86.50
2023-02-21T23:07:27.101Z,86.23
2023-02-21T23:09:53.589Z,86.35
2023-02-21T23:12:19.937Z,86.05
2023-02-21T23:14:46.378Z,87.22
2023-02-21T23:17:12.780Z,87.48
2023-02-21T23:19:39.045Z,87.27
2023-02-21T23:22:05.463Z,87.11
2023-02-21T23:24:32.265Z,86.75
2023-02-21T23:26:58.525Z,86.46
2023-02-21T23:29:25.546Z,86.92
2023-02-21T23:31:52.977Z,86.97
2023-02-21T23:34:19.314Z,86.85
2023-02-21T23:36:45.964Z,87.62
2023-02-21T23:39:12.376Z,87.93
2023-02-21T23:41:39.096Z,87.89
2023-02-21T23:44:11.069Z,87.66
2023-02-21T23:46:38.491Z,87.98
2023-02-21T23:49:08.895Z,87.65
2023-02-21T23:51:36.263Z,88.17
2023-02-21T23:54:02.737Z,88.05
2023-02-21T23:56:29.015Z,88.36
2023-02-21T23:58:55.594Z,88.53
